• Join FlightAware (Why Join?)
  • Login
  • US Flag 
12:49AM EDT


 

Airport Tracker/Info


-or-


 

Live Flight TrackerFlight Track Log ✈ AWE2690 ✈ 08-Sep-2013 ✈ KMYR - KCLT

Flight Track Log - Related Links

Times and Time Zones

All times are in EDT time to prevent confusion due to time zone crossing. See the AWE2690 flight status page for this flight to view local times or setup timezone preferences in your user account.

Time Position Orientation Groundspeed Altitude Reporting Facility
EDT Latitude Longitude Course Direction KTS MPH feet Rate Location/Type
11:28AM 33.5811 -78.9586 312° West 231 266 4,700  Level Jacksonville Center
11:29AM 33.8501 -79.1470 313° West  Level Estimated
11:29AM 33.5956 -79.0278 284° West 229 264 7,000  Level Jacksonville Center
11:30AM 33.9067 -79.2200 313° West  Level Estimated
11:30AM 33.6519 -79.0928 316° Northwest 238 274 9,500  Level Jacksonville Center
11:31AM 33.9625 -79.2942 312° West  Level FlightAware Approximate
11:31AM 33.7183 -79.1547 322° Northwest 271 312 11,100  Level Jacksonville Center
11:32AM 34.0191 -79.3674 312° West  Level Estimated
11:32AM 33.7894 -79.2267 320° Northwest 303 349 13,500  Level Jacksonville Center
11:33AM 33.8667 -79.3011 321° Northwest 334 384 15,300 1,260 Climbing Jacksonville Center
11:34AM 33.9461 -79.3778 321° Northwest 355 409 16,000 300 Climbing Jacksonville Center
11:35AM 34.0317 -79.4547 323° Northwest 368 423 16,000  Level Jacksonville Center
11:36AM 34.1153 -79.5367 321° Northwest 381 438 16,000  Level Jacksonville Center
11:37AM 34.1967 -79.6189 320° Northwest 381 438 16,000  Level Jacksonville Center
11:38AM 34.2656 -79.7092 313° West 381 438 16,000 -240 Level Jacksonville Center
11:39AM 34.3261 -79.7925 311° West 354 407 15,600 -780 Descending Jacksonville Center
11:40AM 34.3803 -79.8736 309° West 329 379 14,500 -1,200 Descending Jacksonville Center
11:41AM 34.4386 -79.9597 309° West 307 353 13,300 -1,080 Descending Jacksonville Center
11:42AM 34.4903 -80.0333 310° West 302 348 12,400 -960 Descending Jacksonville Center
11:43AM 34.5422 -80.1122 309° West 297 342 11,400 -720 Descending Jacksonville Center
11:44AM 34.5919 -80.1864 309° West 297 342 11,000 -180 Descending Jacksonville Center
11:45AM 34.6397 -80.2619 308° West 286 329 11,100  Climbing Atlanta Center
11:46AM 34.6919 -80.3303 313° West 286 329 11,100  Level Atlanta Center
11:47AM 34.7461 -80.3986 314° West 287 330 11,100 -240 Level Atlanta Center
11:48AM 34.7925 -80.4800 305° West 293 337 10,700 -960 Descending Atlanta Center
11:49AM 34.7786 -80.5792 260° West 290 334 9,200 -1,320 Descending Atlanta Center
11:50AM 34.7622 -80.6711 258° West 274 315 8,000 -660 Descending Atlanta Center
11:51AM 34.7497 -80.7447 258° West 233 268 8,000  Level Atlanta Center
11:52AM 34.7375 -80.8339 261° West 232 267 8,000  Level Atlanta Center
11:53AM 34.7828 -80.8850 317° Northwest 221 254 8,000 -240 Level Atlanta Center
11:54AM 34.8336 -80.9236 328° Northwest 220 253 7,600 -540 Descending Atlanta Center
11:55AM 34.8964 -80.9264 358° North 220 253 7,000 -780 Descending Atlanta Center
11:56AM 34.9528 -80.9319 355° North 186 214 6,100 -1,200 Descending Atlanta Center
11:57AM 34.9989 -80.9353 357° North 167 192 4,700 -1,260 Descending Atlanta Center
11:58AM 35.0492 -80.9408 355° North 176 203 3,600 -960 Descending Atlanta Center
11:59AM 35.0972 -80.9469 354° North 176 203 2,700 -840 Descending Atlanta Center
12:00PM 35.1453 -80.9475 359° North 157 181 1,900 -840 Descending Atlanta Center
12:01PM 35.1828 -80.9511 355° North 135 155 1,100 -840 Descending Atlanta Center